createdAt,value
2024-02-21T00:00:26.400Z,151878.72
2024-02-21T00:02:59.159Z,151889.03
2024-02-21T00:05:30.436Z,151900.69
2024-02-21T00:08:01.779Z,151892.94
2024-02-21T00:10:36.541Z,151881.34
2024-02-21T00:13:08.538Z,151892.94
2024-02-21T00:15:38.654Z,151882.59
2024-02-21T00:18:09.019Z,151883.88
2024-02-21T00:20:38.944Z,151899.41
2024-02-21T00:23:09.089Z,151917.44
2024-02-21T00:25:41.666Z,151913.56
2024-02-21T00:28:11.588Z,151920.06
2024-02-21T00:30:43.291Z,151914.88
2024-02-21T00:33:13.559Z,151921.34
2024-02-21T00:35:43.614Z,151945.84
2024-02-21T00:38:13.589Z,151931.66
2024-02-21T00:40:46.222Z,151963.94
2024-02-21T00:43:16.397Z,151962.63
2024-02-21T00:45:48.133Z,151935.53
2024-02-21T00:48:18.232Z,151929.09
2024-02-21T00:50:48.275Z,151934.25
2024-02-21T00:53:18.171Z,151913.56
2024-02-21T00:55:50.735Z,151912.28
2024-02-21T00:58:20.659Z,151882.59
2024-02-21T01:00:51.169Z,151880.06
2024-02-21T01:03:21.226Z,151860.69
2024-02-21T01:05:51.178Z,151833.53
2024-02-21T01:08:21.105Z,151829.63
2024-02-21T01:10:53.842Z,151819.31
2024-02-21T01:13:24.066Z,151806.44
2024-02-21T01:15:55.417Z,151799.97
2024-02-21T01:18:25.352Z,151784.50
2024-02-21T01:20:55.351Z,151779.34
2024-02-21T01:23:25.312Z,151784.50
2024-02-21T01:25:58.277Z,151756.16
2024-02-21T01:28:28.329Z,151754.81
2024-02-21T01:30:58.646Z,151752.28
2024-02-21T01:33:31.692Z,151754.81
2024-02-21T01:36:01.743Z,151759.97
2024-02-21T01:38:33.349Z,151761.31
2024-02-21T01:41:07.324Z,151738.06
2024-02-21T01:43:37.264Z,151744.50
2024-02-21T01:46:09.164Z,151744.50
2024-02-21T01:48:39.560Z,151752.28
2024-02-21T01:51:10.058Z,151767.75
2024-02-21T01:53:44.166Z,151797.41
2024-02-21T01:56:16.860Z,151789.66
2024-02-21T01:58:48.044Z,151796.13
2024-02-21T02:01:21.677Z,151812.88
2024-02-21T02:03:54.218Z,151823.19
2024-02-21T02:06:24.676Z,151824.47
2024-02-21T02:08:57.842Z,151819.31
2024-02-21T02:11:30.476Z,151833.53
2024-02-21T02:14:00.451Z,151840.00
2024-02-21T02:16:30.537Z,151838.69
2024-02-21T02:19:03.147Z,151823.19
2024-02-21T02:21:36.511Z,151821.94
2024-02-21T02:24:10.230Z,151834.78
2024-02-21T02:26:40.571Z,151811.59
2024-02-21T02:29:10.985Z,151805.13
2024-02-21T02:31:41.207Z,151814.16
2024-02-21T02:34:11.368Z,151802.56
2024-02-21T02:36:41.965Z,151807.72
2024-02-21T02:39:14.430Z,151820.66
2024-02-21T02:41:46.074Z,151811.59
2024-02-21T02:44:16.043Z,151825.81
2024-02-21T02:46:47.548Z,151820.66
2024-02-21T02:49:17.684Z,151825.81
2024-02-21T02:51:49.319Z,151812.88
2024-02-21T02:54:21.880Z,151794.81
2024-02-21T02:56:52.863Z,151809.00
2024-02-21T02:59:40.368Z,151820.66
2024-02-21T03:02:10.714Z,151810.34
2024-02-21T03:04:44.705Z,151819.31
2024-02-21T03:07:17.341Z,151815.50
2024-02-21T03:09:49.931Z,151827.09
2024-02-21T03:12:25.719Z,151821.94
2024-02-21T03:14:55.647Z,151837.41
2024-02-21T03:17:25.808Z,151807.72
2024-02-21T03:19:56.782Z,151799.97
2024-02-21T03:22:27.043Z,151794.81
2024-02-21T03:24:59.581Z,151815.50
2024-02-21T03:27:29.600Z,151812.88
2024-02-21T03:30:00.072Z,151776.78
2024-02-21T03:32:30.683Z,151750.94
2024-02-21T03:35:01.110Z,151759.97
2024-02-21T03:37:31.172Z,151747.09
2024-02-21T03:40:03.827Z,151749.66
2024-02-21T03:42:33.859Z,151765.13
2024-02-21T03:45:05.061Z,151761.31
2024-02-21T03:47:34.992Z,151745.78
2024-02-21T03:50:05.959Z,151747.09
2024-02-21T03:52:36.225Z,151736.78
2024-02-21T03:55:09.604Z,151738.06
2024-02-21T03:57:39.888Z,151761.31
2024-02-21T04:00:13.541Z,151766.47
2024-02-21T04:02:44.797Z,151776.78
2024-02-21T04:05:15.073Z,151771.63
2024-02-21T04:07:45.133Z,151763.84
2024-02-21T04:10:17.706Z,151756.16
2024-02-21T04:12:47.560Z,151758.69
2024-02-21T04:15:17.732Z,151767.75
2024-02-21T04:17:47.660Z,151758.69
2024-02-21T04:20:20.173Z,151769.00
2024-02-21T04:22:50.601Z,151778.06
2024-02-21T04:25:23.299Z,151774.19
2024-02-21T04:27:53.280Z,151752.28
2024-02-21T04:30:23.836Z,151779.34
2024-02-21T04:32:53.799Z,151769.00
2024-02-21T04:35:23.979Z,151781.94
2024-02-21T04:37:54.076Z,151778.06
2024-02-21T04:40:26.655Z,151801.28
2024-02-21T04:42:56.687Z,151792.25
2024-02-21T04:45:26.930Z,151802.56
2024-02-21T04:47:56.860Z,151809.00
2024-02-21T04:50:26.974Z,151810.34
2024-02-21T04:52:57.038Z,151794.81
2024-02-21T04:55:29.636Z,151796.13
2024-02-21T04:57:59.780Z,151783.22
2024-02-21T05:00:30.282Z,151796.13
2024-02-21T05:03:00.205Z,151784.50
2024-02-21T05:05:30.786Z,151797.41
2024-02-21T05:08:00.782Z,151794.81
2024-02-21T05:10:33.470Z,151792.25
2024-02-21T05:13:03.450Z,151775.44
2024-02-21T05:15:35.599Z,151772.91
2024-02-21T05:18:05.655Z,151765.13
2024-02-21T05:20:35.829Z,151780.59
2024-02-21T05:23:05.983Z,151756.16
2024-02-21T05:25:38.583Z,151740.63
2024-02-21T05:28:09.164Z,151741.94
2024-02-21T05:30:41.031Z,151735.47
2024-02-21T05:33:13.729Z,151729.03
2024-02-21T05:35:43.775Z,151734.19
2024-02-21T05:38:13.702Z,151736.78
2024-02-21T05:40:46.353Z,151734.19
2024-02-21T05:43:16.403Z,151726.44
2024-02-21T05:45:48.272Z,151692.94
2024-02-21T05:48:20.156Z,151683.91
2024-02-21T05:50:50.215Z,151689.06
2024-02-21T05:53:21.236Z,151698.09
2024-02-21T05:55:56.849Z,151707.13
2024-02-21T05:58:27.483Z,151727.75
2024-02-21T06:00:58.185Z,151736.78
2024-02-21T06:03:28.803Z,151727.75
2024-02-21T06:06:02.971Z,151744.50
2024-02-21T06:08:33.731Z,151739.34
2024-02-21T06:11:06.453Z,151744.50
2024-02-21T06:13:36.456Z,151747.09
2024-02-21T06:16:06.799Z,151754.81
2024-02-21T06:18:39.235Z,151752.28
2024-02-21T06:21:10.878Z,151748.38
2024-02-21T06:23:42.173Z,151787.09
2024-02-21T06:26:17.044Z,151807.72
2024-02-21T06:28:50.764Z,151814.16
2024-02-21T06:31:24.692Z,151796.13
2024-02-21T06:33:56.942Z,151812.88
2024-02-21T06:36:28.203Z,151825.81
2024-02-21T06:38:58.790Z,151821.94
2024-02-21T06:41:43.204Z,151833.53
2024-02-21T06:44:13.542Z,151819.31
2024-02-21T06:46:44.594Z,151836.13
2024-02-21T06:49:17.623Z,151846.44
2024-02-21T06:51:47.948Z,151852.94
2024-02-21T06:54:17.939Z,151871.00
2024-02-21T06:56:50.570Z,151890.38
2024-02-21T06:59:20.507Z,151883.88
2024-02-21T07:01:51.327Z,151905.84
2024-02-21T07:04:21.585Z,151918.72
2024-02-21T07:06:52.933Z,151962.63
2024-02-21T07:09:23.736Z,152007.84
2024-02-21T07:11:56.468Z,152053.00
2024-02-21T07:14:26.738Z,152071.06
2024-02-21T07:16:59.953Z,152109.81
2024-02-21T07:19:33.523Z,152122.72
2024-02-21T07:22:04.946Z,152158.88
2024-02-21T07:24:36.597Z,152174.38
2024-02-21T07:27:09.620Z,152220.91
2024-02-21T07:29:44.015Z,152233.78
2024-02-21T07:32:14.729Z,152250.63
2024-02-21T07:34:44.898Z,152264.84
2024-02-21T07:37:15.972Z,152288.06
2024-02-21T07:39:46.785Z,152298.38
2024-02-21T07:42:19.457Z,152293.22
2024-02-21T07:44:49.876Z,152286.78
2024-02-21T07:47:23.499Z,152279.03
2024-02-21T07:49:53.918Z,152277.72
2024-02-21T07:52:26.731Z,152257.06
2024-02-21T07:54:59.032Z,152249.28
2024-02-21T07:57:36.788Z,152205.41
2024-02-21T08:00:10.960Z,152195.03
2024-02-21T08:02:46.712Z,152196.34
2024-02-21T08:05:16.847Z,152213.13
2024-02-21T08:07:51.077Z,152244.13
2024-02-21T08:10:22.541Z,152304.88
2024-02-21T08:12:55.366Z,152310.03
2024-02-21T08:15:31.031Z,152324.25
2024-02-21T08:18:05.611Z,152351.38
2024-02-21T08:20:35.763Z,152413.44
2024-02-21T08:23:09.858Z,152423.75
2024-02-21T08:25:42.265Z,152421.16
2024-02-21T08:28:18.169Z,152396.59
2024-02-21T08:30:50.415Z,152444.44
2024-02-21T08:33:23.002Z,152528.50
2024-02-21T08:35:54.880Z,152610.00
2024-02-21T08:38:28.786Z,152664.31
2024-02-21T08:40:59.306Z,152611.28
2024-02-21T08:43:39.362Z,152624.19
2024-02-21T08:46:12.222Z,152551.81
2024-02-21T08:48:43.455Z,152559.53
2024-02-21T08:51:13.931Z,152602.22
2024-02-21T08:53:47.364Z,152577.66
2024-02-21T08:56:19.440Z,152611.28
2024-02-21T08:58:52.411Z,152595.78
2024-02-21T09:01:26.184Z,152588.00
2024-02-21T09:03:57.960Z,152534.97
2024-02-21T09:06:30.376Z,152529.78
2024-02-21T09:09:03.859Z,152549.19
2024-02-21T09:11:34.905Z,152588.00
2024-02-21T09:14:11.038Z,152590.59
2024-02-21T09:16:44.655Z,152608.69
2024-02-21T09:19:14.888Z,152582.81
2024-02-21T09:21:48.505Z,152613.84
2024-02-21T09:24:18.827Z,152607.41
2024-02-21T09:26:57.133Z,152595.78
2024-02-21T09:29:35.691Z,152639.75
2024-02-21T09:32:08.521Z,152606.13
2024-02-21T09:34:41.411Z,152691.47
2024-02-21T09:37:14.775Z,152696.63
2024-02-21T09:39:49.149Z,152683.69
2024-02-21T09:42:24.368Z,152643.59
2024-02-21T09:45:03.912Z,152739.34
2024-02-21T09:47:44.171Z,152718.59
2024-02-21T09:50:15.395Z,152756.16
2024-02-21T09:52:48.029Z,152691.47
2024-02-21T09:55:20.990Z,152807.94
2024-02-21T09:57:54.054Z,152789.78
2024-02-21T10:00:31.574Z,152818.28
2024-02-21T10:03:02.580Z,152760.03
2024-02-21T10:05:33.161Z,152841.53
2024-02-21T10:08:08.107Z,152873.91
2024-02-21T10:10:49.133Z,152854.50
2024-02-21T10:13:30.584Z,152877.81
2024-02-21T10:16:11.607Z,152890.72
2024-02-21T10:18:45.062Z,152807.94
2024-02-21T10:21:15.790Z,152882.97
2024-02-21T10:23:47.146Z,152950.31
2024-02-21T10:26:19.474Z,152837.69
2024-02-21T10:28:53.799Z,152840.25
2024-02-21T10:31:34.742Z,152831.19
2024-02-21T10:34:07.135Z,152850.59
2024-02-21T10:36:38.176Z,152911.41
2024-02-21T10:39:11.106Z,152919.19
2024-02-21T10:41:43.023Z,152851.88
2024-02-21T10:44:15.546Z,152938.63
2024-02-21T10:46:52.457Z,152993.03
2024-02-21T10:49:29.803Z,152857.06
2024-02-21T10:52:17.680Z,152985.25
2024-02-21T10:54:59.651Z,152960.66
2024-02-21T10:57:31.636Z,153106.97
2024-02-21T11:00:04.326Z,153182.09
2024-02-21T11:02:40.618Z,152972.34
2024-02-21T11:05:11.902Z,152933.44
2024-02-21T11:07:43.870Z,152897.22
2024-02-21T11:10:27.132Z,152937.34
2024-02-21T11:12:58.319Z,152911.41
2024-02-21T11:15:31.210Z,152912.75
2024-02-21T11:18:08.529Z,153029.28
2024-02-21T11:20:40.176Z,153030.59
2024-02-21T11:23:13.447Z,153022.81
2024-02-21T11:25:43.997Z,153186.00
2024-02-21T11:28:17.648Z,153202.81
2024-02-21T11:30:48.266Z,153249.47
2024-02-21T11:33:21.604Z,153200.25
2024-02-21T11:35:52.319Z,153193.78
2024-02-21T11:38:24.195Z,153288.34
2024-02-21T11:40:55.123Z,153443.91
2024-02-21T11:43:27.571Z,153486.69
2024-02-21T11:46:04.891Z,153512.63
2024-02-21T11:48:42.144Z,153523.00
2024-02-21T11:51:12.839Z,153555.44
2024-02-21T11:53:54.806Z,153346.69
2024-02-21T11:56:34.039Z,153289.63
2024-02-21T11:59:05.217Z,153227.44
2024-02-21T12:01:36.055Z,153224.88
2024-02-21T12:04:13.340Z,153160.09
2024-02-21T12:06:44.129Z,153121.25
2024-02-21T12:09:18.865Z,153139.38
2024-02-21T12:11:50.428Z,153147.13
2024-02-21T12:14:21.500Z,153131.59
2024-02-21T12:16:52.093Z,153127.69
2024-02-21T12:19:31.487Z,153165.28
2024-02-21T12:22:07.415Z,153214.50
2024-02-21T12:24:39.884Z,153242.97
2024-02-21T12:27:11.191Z,153266.31
2024-02-21T12:29:44.510Z,153338.88
2024-02-21T12:32:15.340Z,153331.09
2024-02-21T12:34:54.398Z,153293.53
2024-02-21T12:37:30.410Z,153284.47
2024-02-21T12:40:10.807Z,153268.91
2024-02-21T12:42:42.748Z,153255.94
2024-02-21T12:45:14.376Z,153293.53
2024-02-21T12:47:44.980Z,153379.09
2024-02-21T12:50:21.732Z,153403.72
2024-02-21T12:52:51.856Z,153462.06
2024-02-21T12:55:23.217Z,153454.28
2024-02-21T12:57:56.152Z,153416.72
2024-02-21T13:00:29.073Z,153298.72
2024-02-21T13:03:00.673Z,153294.81
2024-02-21T13:05:33.591Z,153302.63
2024-02-21T13:08:04.936Z,153266.31
2024-02-21T13:10:37.178Z,153204.16
2024-02-21T13:13:08.163Z,153220.97
2024-02-21T13:15:44.089Z,153302.63
2024-02-21T13:18:17.529Z,153311.66
2024-02-21T13:20:55.159Z,153250.75
2024-02-21T13:23:26.444Z,153183.38
2024-02-21T13:25:56.950Z,153099.19
2024-02-21T13:28:28.999Z,153075.91
2024-02-21T13:31:00.158Z,153037.06
2024-02-21T13:33:32.612Z,153031.88
2024-02-21T13:36:11.405Z,153021.53
2024-02-21T13:38:44.174Z,153034.44
2024-02-21T13:41:15.978Z,153134.22
2024-02-21T13:43:47.997Z,153143.22
2024-02-21T13:46:19.217Z,153126.41
2024-02-21T13:48:51.239Z,153122.53
2024-02-21T13:51:24.467Z,153122.53
2024-02-21T13:53:54.900Z,153151.03
2024-02-21T13:56:26.214Z,153161.38
2024-02-21T13:58:56.883Z,153180.81
2024-02-21T14:01:29.321Z,153191.16
2024-02-21T14:04:02.208Z,153161.38
2024-02-21T14:06:35.561Z,153166.56
2024-02-21T14:09:06.142Z,153189.88
2024-02-21T14:11:39.226Z,153153.59
2024-02-21T14:14:10.020Z,153110.88
2024-02-21T14:16:41.607Z,153086.28
2024-02-21T14:19:13.217Z,153090.16
2024-02-21T14:21:46.014Z,153131.59
2024-02-21T14:24:17.018Z,153130.31
2024-02-21T14:26:51.085Z,153148.41
2024-02-21T14:29:22.312Z,153152.31
2024-02-21T14:31:53.399Z,153174.34
2024-02-21T14:34:24.834Z,153188.56
2024-02-21T14:37:00.861Z,153204.16
2024-02-21T14:39:32.112Z,153173.03
2024-02-21T14:42:04.176Z,153195.06
2024-02-21T14:44:36.896Z,153193.78
2024-02-21T14:47:10.086Z,153195.06
2024-02-21T14:49:44.950Z,153206.72
2024-02-21T14:52:18.765Z,153154.91
2024-02-21T14:54:53.021Z,153143.22
2024-02-21T14:57:23.986Z,153121.25
2024-02-21T14:59:57.923Z,153095.34
2024-02-21T15:02:29.909Z,153072.03
2024-02-21T15:05:01.004Z,153070.75
2024-02-21T15:07:35.642Z,153046.13
2024-02-21T15:10:09.776Z,153026.72
2024-02-21T15:12:41.551Z,153030.59
2024-02-21T15:15:12.950Z,153004.66
2024-02-21T15:17:46.783Z,152993.03
2024-02-21T15:20:21.093Z,152989.16
2024-02-21T15:22:54.961Z,152982.69
2024-02-21T15:25:27.006Z,152949.03
2024-02-21T15:27:57.895Z,152937.34
2024-02-21T15:30:34.657Z,152920.47
2024-02-21T15:33:05.824Z,152912.75
2024-02-21T15:35:37.178Z,152904.97
2024-02-21T15:38:13.018Z,152889.44
2024-02-21T15:40:44.015Z,152849.31
2024-02-21T15:43:14.678Z,152857.06
2024-02-21T15:45:45.765Z,152818.28
2024-02-21T15:48:20.018Z,152801.41
2024-02-21T15:51:00.342Z,152778.16
2024-02-21T15:53:34.536Z,152765.22
2024-02-21T15:56:04.939Z,152730.28
2024-02-21T15:58:35.721Z,152703.09
2024-02-21T16:01:06.378Z,152688.84
2024-02-21T16:03:38.706Z,152669.50
2024-02-21T16:06:11.884Z,152653.94
2024-02-21T16:08:51.448Z,152631.97
2024-02-21T16:11:24.871Z,152617.75
2024-02-21T16:14:06.697Z,152598.34
2024-02-21T16:16:44.778Z,152589.28
2024-02-21T16:19:16.041Z,152569.88
2024-02-21T16:21:47.042Z,152567.31
2024-02-21T16:24:19.586Z,152551.81
2024-02-21T16:26:49.569Z,152544.03
2024-02-21T16:29:19.598Z,152527.25
2024-02-21T16:31:49.587Z,152532.41
2024-02-21T16:34:20.934Z,152513.00
2024-02-21T16:36:51.022Z,152498.78
2024-02-21T16:39:23.710Z,152487.16
2024-02-21T16:41:56.871Z,152480.66
2024-02-21T16:44:29.414Z,152469.06
2024-02-21T16:46:59.460Z,152467.78
2024-02-21T16:49:32.927Z,152454.78
2024-02-21T16:52:05.668Z,152447.03
2024-02-21T16:54:38.992Z,152428.94
2024-02-21T16:57:11.458Z,152428.94
2024-02-21T16:59:41.375Z,152417.31
2024-02-21T17:02:13.022Z,152405.66
2024-02-21T17:04:43.667Z,152412.09
2024-02-21T17:07:13.764Z,152394.03
2024-02-21T17:09:46.578Z,152395.31
2024-02-21T17:12:17.450Z,152379.81
2024-02-21T17:14:48.231Z,152383.69
2024-02-21T17:17:19.874Z,152370.75
2024-02-21T17:19:50.126Z,152363.03
2024-02-21T17:22:20.147Z,152343.66
2024-02-21T17:24:52.871Z,152324.25
2024-02-21T17:27:23.196Z,152308.75
2024-02-21T17:29:53.106Z,152317.75
2024-02-21T17:32:23.029Z,152325.53
2024-02-21T17:34:52.996Z,152326.81
2024-02-21T17:37:23.000Z,152332.00
2024-02-21T17:39:55.656Z,152343.66
2024-02-21T17:42:26.184Z,152334.59
2024-02-21T17:44:56.202Z,152313.94
2024-02-21T17:47:26.222Z,152310.03
2024-02-21T17:49:56.358Z,152330.72
2024-02-21T17:52:27.958Z,152347.50
2024-02-21T17:55:01.242Z,152343.66
2024-02-21T17:57:31.247Z,152339.75
2024-02-21T18:00:03.205Z,152329.44
2024-02-21T18:02:43.146Z,152308.75
2024-02-21T18:05:13.619Z,152315.22
2024-02-21T18:07:43.948Z,152324.25
2024-02-21T18:10:16.868Z,152330.72
2024-02-21T18:12:46.834Z,152335.88
2024-02-21T18:15:20.305Z,152351.38
2024-02-21T18:17:52.896Z,152344.94
2024-02-21T18:20:23.573Z,152381.09
2024-02-21T18:22:54.353Z,152360.44
2024-02-21T18:25:27.084Z,152355.25
2024-02-21T18:27:57.268Z,152355.25
2024-02-21T18:30:27.654Z,152346.22
2024-02-21T18:32:58.279Z,152363.03
2024-02-21T18:35:28.307Z,152368.22
2024-02-21T18:37:58.378Z,152364.31
2024-02-21T18:40:31.617Z,152366.88
2024-02-21T18:43:03.927Z,152353.97
2024-02-21T18:45:36.342Z,152361.72
2024-02-21T18:48:09.451Z,152364.31
2024-02-21T18:50:40.706Z,152379.81
2024-02-21T18:53:10.786Z,152366.88
2024-02-21T18:55:43.414Z,152360.44
2024-02-21T18:58:13.490Z,152353.97
2024-02-21T19:00:44.037Z,152352.66
2024-02-21T19:03:14.059Z,152346.22
2024-02-21T19:05:44.062Z,152344.94
2024-02-21T19:08:14.318Z,152348.81
2024-02-21T19:10:48.291Z,152347.50
2024-02-21T19:13:18.890Z,152334.59
2024-02-21T19:15:49.068Z,152335.88
2024-02-21T19:18:20.158Z,152320.38
2024-02-21T19:20:50.107Z,152322.94
2024-02-21T19:23:21.124Z,152321.66
2024-02-21T19:25:53.787Z,152304.88
2024-02-21T19:28:24.892Z,152293.22
2024-02-21T19:30:55.946Z,152288.06
2024-02-21T19:33:26.140Z,152270.00
2024-02-21T19:35:56.057Z,152254.50
2024-02-21T19:38:26.896Z,152262.22
2024-02-21T19:40:59.550Z,152242.84
2024-02-21T19:43:29.565Z,152260.94
2024-02-21T19:45:59.698Z,152259.66
2024-02-21T19:48:29.816Z,152266.09
2024-02-21T19:50:59.974Z,152259.66
2024-02-21T19:53:30.065Z,152253.16
2024-02-21T19:56:02.811Z,152259.66
2024-02-21T19:58:33.766Z,152266.09
2024-02-21T20:01:07.728Z,152271.28
2024-02-21T20:03:38.080Z,152271.28
2024-02-21T20:06:09.672Z,152262.22
2024-02-21T20:08:39.797Z,152257.06
2024-02-21T20:11:12.555Z,152260.94
2024-02-21T20:13:46.409Z,152246.72
2024-02-21T20:16:16.342Z,152235.13
2024-02-21T20:18:46.339Z,152223.47
2024-02-21T20:21:16.368Z,152223.47
2024-02-21T20:23:46.612Z,152231.22
2024-02-21T20:26:19.236Z,152219.56
2024-02-21T20:28:49.546Z,152192.47
2024-02-21T20:31:21.404Z,152164.03
2024-02-21T20:33:52.867Z,152148.56
2024-02-21T20:36:23.069Z,152125.28
2024-02-21T20:38:53.049Z,152105.91
2024-02-21T20:41:25.883Z,152096.91
2024-02-21T20:43:55.883Z,152090.44
2024-02-21T20:46:25.922Z,152073.66
2024-02-21T20:49:07.135Z,152071.06
2024-02-21T20:51:38.005Z,152069.78
2024-02-21T20:54:13.613Z,152041.38
2024-02-21T20:56:51.032Z,152049.13
2024-02-21T20:59:24.697Z,152036.19
2024-02-21T21:02:02.787Z,152027.16
2024-02-21T21:04:35.410Z,152020.72
2024-02-21T21:07:07.611Z,152031.03
2024-02-21T21:09:40.382Z,152006.50
2024-02-21T21:12:13.813Z,152013.00
2024-02-21T21:14:47.431Z,152015.56
2024-02-21T21:17:21.799Z,152001.34
2024-02-21T21:19:56.440Z,151991.03
2024-02-21T21:22:27.965Z,151970.38
2024-02-21T21:24:57.971Z,151970.38
2024-02-21T21:27:31.954Z,151951.00
2024-02-21T21:30:03.673Z,151967.78
2024-02-21T21:32:37.225Z,151975.53
2024-02-21T21:35:09.079Z,151980.69
2024-02-21T21:37:42.508Z,152001.34
2024-02-21T21:40:14.358Z,151994.91
2024-02-21T21:42:48.709Z,151981.97
2024-02-21T21:45:21.682Z,151979.41
2024-02-21T21:47:52.212Z,151962.63
2024-02-21T21:50:24.092Z,151965.22
2024-02-21T21:52:55.208Z,151954.91
2024-02-21T21:55:26.909Z,151944.56
2024-02-21T21:57:59.690Z,151934.25
2024-02-21T22:00:32.545Z,151917.44
2024-02-21T22:03:04.384Z,151921.34
2024-02-21T22:05:37.565Z,151923.94
2024-02-21T22:08:08.862Z,151920.06
2024-02-21T22:10:43.041Z,151913.56
2024-02-21T22:13:19.728Z,151894.25
2024-02-21T22:15:51.154Z,151896.81
2024-02-21T22:18:24.456Z,151903.25
2024-02-21T22:20:55.868Z,151898.09
2024-02-21T22:23:26.025Z,151886.50
2024-02-21T22:25:57.292Z,151882.59
2024-02-21T22:28:31.392Z,151872.28
2024-02-21T22:31:04.410Z,151852.94
2024-02-21T22:33:35.784Z,151838.69
2024-02-21T22:36:07.291Z,151838.69
2024-02-21T22:38:39.606Z,151850.38
2024-02-21T22:41:11.446Z,151834.78
2024-02-21T22:43:44.694Z,151827.09
2024-02-21T22:46:16.041Z,151821.94
2024-02-21T22:48:48.513Z,151801.28
2024-02-21T22:51:19.904Z,151789.66
2024-02-21T22:53:50.052Z,151785.81
2024-02-21T22:56:21.431Z,151779.34
2024-02-21T22:58:58.713Z,151783.22
2024-02-21T23:01:31.678Z,151779.34
2024-02-21T23:04:03.960Z,151757.41
2024-02-21T23:06:36.577Z,151743.22
2024-02-21T23:09:09.570Z,151736.78
2024-02-21T23:11:43.369Z,151714.84
2024-02-21T23:14:21.545Z,151714.84
2024-02-21T23:16:52.773Z,151696.75
2024-02-21T23:19:25.427Z,151691.59
2024-02-21T23:21:56.682Z,151701.97
2024-02-21T23:24:27.029Z,151734.19
2024-02-21T23:26:58.006Z,151716.13
2024-02-21T23:29:30.668Z,151700.66
2024-02-21T23:32:01.119Z,151726.44
2024-02-21T23:34:32.070Z,151736.78
2024-02-21T23:37:03.238Z,151741.94
2024-02-21T23:39:33.873Z,151730.31
2024-02-21T23:42:04.565Z,151734.19
2024-02-21T23:44:37.177Z,151766.47
2024-02-21T23:47:07.882Z,151759.97
2024-02-21T23:49:38.024Z,151754.81
2024-02-21T23:52:10.122Z,151771.63
2024-02-21T23:54:41.048Z,151772.91
2024-02-21T23:57:12.235Z,151770.28
2024-02-21T23:59:45.828Z,151761.31
